Tuesday, October 23, 2018, 11:37 PM EDT
Back to Local

KGSB, Seymour-johnson Air Force Base

Location: Goldsboro, NC, United States Lat: 35.333
Local Time: 11:37 PM EDT ( 3:37 GMT) Lon: -77.967
Time Zone: US/Eastern Elev: 108 ft

Show me the last for .
Show Decoded

2018-10-23 22:56 METAR KGSB 240256Z AUTO 00000KT 10SM CLR 10/08 A3010 RMK AO2 VIS 1/2 RWY08
                 SLP196 T01010082 52008 $ =
2018-10-23 21:56 METAR KGSB 240156Z AUTO 00000KT 10SM CLR 11/09 A3009 RMK AO2 SLP193 T01070086 $
                 =
2018-10-23 20:56 METAR KGSB 240056Z AUTO 00000KT 10SM CLR 12/10 A3008 RMK AO2 SLP189 T01240096 $
                 =
2018-10-23 19:56 METAR KGSB 232356Z AUTO 00000KT 10SM CLR 14/10 A3007 RMK AO2 SLP186 T01360098
                 10216 20136 52003 $ =
2018-10-23 18:56 METAR KGSB 232256Z AUTO 00000KT 10SM CLR 16/10 A3007 RMK AO2 SLP186 T01550098 $
                 =
2018-10-23 17:56 METAR KGSB 232156Z AUTO 24004KT 10SM CLR 18/09 A3007 RMK AO2 SLP186 T01810094 $
                 =
2018-10-23 16:56 METAR KGSB 232056Z AUTO 23008KT 10SM CLR 21/09 A3007 RMK AO2 SLP186 T02050085
                 57019 $ =
2018-10-23 15:56 METAR KGSB 231956Z AUTO 29008KT 10SM CLR 21/08 A3008 RMK AO2 SLP189 T02130079 $
                 =
2018-10-23 14:56 METAR KGSB 231856Z AUTO 26008KT 10SM CLR 21/08 A3009 RMK AO2 SLP192 T02100076 $
                 =
2018-10-23 13:56 METAR KGSB 231756Z AUTO 26012KT 10SM FEW180 21/07 A3012 RMK AO2 SLP203 T02070066
                 10207 20058 58022 $ =
2018-10-23 12:56 METAR KGSB 231656Z AUTO 25009KT 10SM FEW180 20/08 A3015 RMK AO2 SLP213 T01990082
                 $ =
2018-10-23 11:56 METAR KGSB 231556Z AUTO 27006KT 10SM FEW180 19/09 A3018 RMK AO2 SLP223 T01880087
                 $ =
2018-10-23 10:56 METAR KGSB 231456Z AUTO 26005KT 10SM FEW210 16/08 A3019 RMK AO2 SLP226 T01610076
                 50002 $ =
2018-10-23 09:56 METAR KGSB 231356Z AUTO 25004KT 10SM CLR 13/06 A3019 RMK AO2 SLP227 T01260064 $
                 =
2018-10-23 08:56 METAR KGSB 231256Z AUTO 00000KT 10SM CLR 09/06 A3019 RMK AO2 SLP227 T00900059 $
                 =
2018-10-23 07:56 METAR KGSB 231156Z AUTO 00000KT 10SM CLR 06/04 A3018 RMK AO2 SLP223 T00580038
                 10071 20048 58000 $ =
2018-10-23 06:56 METAR KGSB 231056Z AUTO 00000KT 10SM CLR 05/03 A3018 RMK AO2 SLP223 T00540032 $
                 =
2018-10-23 05:56 METAR KGSB 230956Z AUTO 00000KT 10SM CLR 05/03 A3019 RMK AO2 SLP227 T00530030 $
                 =
2018-10-23 04:56 METAR KGSB 230856Z AUTO 00000KT 10SM CLR 05/03 A3018 RMK AO2 SLP223 T00530030
                 57012 $ =
2018-10-23 03:56 METAR KGSB 230756Z AUTO 00000KT 10SM CLR 06/03 A3018 RMK AO2 SLP223 T00560034 $
                 =
2018-10-23 02:56 METAR KGSB 230656Z AUTO 00000KT 10SM CLR 07/04 A3021 RMK AO2 SLP233 T00700041 $
                 =
2018-10-23 01:56 METAR KGSB 230556Z AUTO 00000KT 10SM CLR 07/05 A3022 RMK AO2 SLP237 T00650045
                 10108 20058 57012 $ =
2018-10-23 00:56 METAR KGSB 230456Z AUTO 00000KT 10SM FEW230 09/04 A3023 RMK AO2 SLP240 T00890037
                 401860018 $ =
2018-10-22 23:56 METAR KGSB 230356Z AUTO 00000KT 10SM FEW240 07/05 A3024 RMK AO2 SLP244 T00670049
                 $ =

Support USWX by starting your Amazon purchase here.